Terminal Aerodrome Forecast
Issued by NWS

Home | Current Version | Previous Version | Graphics & Text | Print | Product List | Glossary On
Versions: 1 2 3 4 5 6 7 8 9 10 11 12 13
000
FTUS43 KUNR 282351
TAFGCC
TAF
KGCC 282351Z 2900/2924 34006KT P6SM SCT150 BKN250
     FM290300 18005KT P6SM SCT250
     FM291500 33007KT P6SM SCT250=

USA.gov is the U.S. government's official web portal to all federal, state and local government web resources and services.